• Join FlightAware (Why Join?)
  • Login
  • US Flag 
06:28PM EDT


 

Airport Tracker/Info


-or-


 

Live Flight TrackerFlight Track Log ✈ JZA8476 ✈ 07-Jul-2013 ✈ CYQU - CYYC

Flight Track Log - Related Links

Times and Time Zones

All times are in EDT time to prevent confusion due to time zone crossing. See the JZA8476 flight status page for this flight to view local times or setup timezone preferences in your user account.

Time Position Orientation Groundspeed Altitude Reporting Facility
EDT Latitude Longitude Course Direction KTS MPH feet Rate Location/Type
11:06AM 55.1333 -118.9167 148° Southeast 130 150 2,900  Level Edmonton Center
11:07AM 55.1167 -118.8667 120° Southeast 150 173 4,000 960 Climbing Edmonton Center
11:08AM 55.0667 -118.8167 150° Southeast 170 196 4,900 960 Climbing Edmonton Center
11:09AM 55.0167 -118.7500 143° Southeast 190 219 6,000 1,080 Climbing Edmonton Center
11:10AM 54.8945 -118.5034 142° Southeast  Level Estimated
11:10AM 54.9667 -118.7000 150° Southeast 190 219 7,100  Level Edmonton Center
11:11AM 54.8334 -118.4379 148° Southeast  Level FlightAware Approximate
11:11AM 54.9333 -118.6500 139° Southeast 200 230 8,000  Level Edmonton Center
11:12AM 54.8833 -118.5833 143° Southeast 200 230 9,100 1,080 Climbing Edmonton Center
11:13AM 54.8333 -118.5333 150° Southeast 200 230 10,200 960 Climbing Edmonton Center
11:14AM 54.8000 -118.4500 125° Southeast 210 242 11,100 900 Climbing Edmonton Center
11:15AM 54.7500 -118.4167 159° South 210 242 12,000 900 Climbing Edmonton Center
11:16AM 54.7000 -118.3333 136° Southeast 220 253 12,900 840 Climbing Edmonton Center
11:17AM 54.6500 -118.2833 150° Southeast 220 253 13,700 720 Climbing Edmonton Center
11:18AM 54.6000 -118.2167 142° Southeast 220 253 14,400 660 Climbing Edmonton Center
11:19AM 54.5333 -118.1667 156° South 220 253 15,100 600 Climbing Edmonton Center
11:20AM 54.5000 -118.0833 125° Southeast 220 253 15,700 600 Climbing Edmonton Center
11:21AM 54.4500 -118.0500 159° South 230 265 16,400 600 Climbing Edmonton Center
11:22AM 54.3833 -117.9667 144° Southeast 230 265 17,000 540 Climbing Edmonton Center
11:23AM 54.3333 -117.9167 150° Southeast 230 265 17,500 480 Climbing Edmonton Center
11:24AM 54.2833 -117.8333 136° Southeast 240 276 18,000 480 Climbing Edmonton Center
11:25AM 54.2167 -117.7667 150° Southeast 240 276 18,500 420 Climbing Edmonton Center
11:26AM 54.1833 -117.7167 139° Southeast 240 276 18,900 420 Climbing Edmonton Center
11:27AM 54.1167 -117.6333 144° Southeast 240 276 19,400 420 Climbing Edmonton Center
11:28AM 54.0500 -117.5667 150° Southeast 240 276 19,800 360 Climbing Edmonton Center
11:29AM 54.0167 -117.5167 139° Southeast 240 276 20,200 360 Climbing Edmonton Center
11:30AM 53.9500 -117.4333 144° Southeast 250 288 20,600 300 Climbing Edmonton Center
11:31AM 53.8833 -117.3667 149° Southeast 250 288 20,900 420 Climbing Edmonton Center
11:32AM 53.8333 -117.2833 135° Southeast 250 288 21,500 480 Climbing Edmonton Center
11:33AM 53.7833 -117.2500 158° South 240 276 21,900 480 Climbing Edmonton Center
11:34AM 53.7167 -117.1667 143° Southeast 240 276 22,500 420 Climbing Edmonton Center
11:35AM 53.6667 -117.0833 135° Southeast 240 276 22,800 240 Climbing Edmonton Center
11:36AM 53.6000 -117.0500 163° South 250 288 23,000 60 Climbing Edmonton Center
11:37AM 53.5500 -116.9667 135° Southeast 260 299 23,000  Level Edmonton Center
11:38AM 53.4833 -116.8833 143° Southeast 270 311 23,000  Level Edmonton Center
11:39AM 53.4167 -116.8167 149° Southeast 280 322 23,000  Level Edmonton Center
11:40AM 53.3500 -116.7333 143° Southeast 280 322 23,000  Level Edmonton Center
11:41AM 53.2833 -116.6667 149° Southeast 280 322 23,000  Level Edmonton Center
11:42AM 53.2167 -116.5833 143° Southeast 280 322 23,000  Level Edmonton Center
11:43AM 53.1500 -116.5167 149° Southeast 290 334 23,000  Level Edmonton Center
11:44AM 53.1000 -116.4333 135° Southeast 290 334 23,000  Level Edmonton Center
11:45AM 53.0167 -116.3667 154° Southeast 290 334 23,000  Level Edmonton Center
11:46AM 52.9500 -116.2833 143° Southeast 290 334 23,000  Level Edmonton Center
11:47AM 52.9000 -116.2167 141° Southeast 290 334 23,000  Level Edmonton Center
11:48AM 52.8167 -116.1333 149° Southeast 280 322 23,000  Level Edmonton Center
11:49AM 52.7500 -116.0667 149° Southeast 280 322 23,000  Level Edmonton Center
11:50AM 52.7000 -115.9833 135° Southeast 280 322 23,000  Level Edmonton Center
11:51AM 52.6333 -115.9167 149° Southeast 280 322 23,000  Level Edmonton Center
11:52AM 52.5500 -115.8333 149° Southeast 290 334 23,000  Level Edmonton Center
11:53AM 52.5000 -115.7667 141° Southeast 280 322 23,000  Level Edmonton Center
11:54AM 52.4333 -115.7000 149° Southeast 280 322 23,000  Level Edmonton Center
11:55AM 52.3500 -115.6167 149° Southeast 280 322 23,000  Level Edmonton Center
11:56AM 52.3000 -115.5500 141° Southeast 280 322 23,000  Level Edmonton Center
11:57AM 52.2333 -115.5000 155° Southeast 280 322 23,000  Level Edmonton Center
11:58AM 52.1667 -115.4333 148° Southeast 280 322 23,000 -420 Level Edmonton Center
11:59AM 52.1000 -115.3333 137° Southeast 280 322 22,200 -1,020 Descending Edmonton Center
12:00PM 52.0333 -115.2833 155° Southeast 300 345 21,000 -1,260 Descending Edmonton Center
12:01PM 51.9500 -115.1833 143° Southeast 310 357 19,700 -1,320 Descending Edmonton Center
12:02PM 51.8833 -115.1167 148° Southeast 310 357 18,400 -1,260 Descending Edmonton Center
12:03PM 51.8167 -115.0500 148° Southeast 310 357 17,200 -1,320 Descending Edmonton Center
12:04PM 51.7333 -114.9667 148° Southeast 300 345 15,800 -1,320 Descending Edmonton Center
12:05PM 51.6667 -114.9000 148° Southeast 300 345 14,600 -1,260 Descending Edmonton Center
12:06PM 51.6000 -114.8333 148° Southeast 300 345 13,300 -1,260 Descending Edmonton Center
12:07PM 51.5333 -114.7333 137° Southeast 290 334 12,100 -1,200 Descending Edmonton Center
12:08PM 51.5000 -114.6333 118° Southeast 290 334 11,000 -1,140 Descending Edmonton Center
12:09PM 51.4333 -114.5667 148° Southeast 270 311 9,900 -1,020 Descending Edmonton Center
12:10PM 51.3667 -114.4833 142° Southeast 260 299 9,000 -900 Descending Edmonton Center
12:11PM 51.3167 -114.4000 134° Southeast 260 299 8,100 -900 Descending Edmonton Center
12:12PM 51.2667 -114.3500 148° Southeast 250 288 7,300 -900 Descending Edmonton Center
12:13PM 51.2000 -114.2500 137° Southeast 250 288 6,300 -1,020 Descending Edmonton Center